createdAt,value
2023-02-06T19:01:04.308Z,7.57
2023-02-06T19:06:15.508Z,5.90
2023-02-06T19:11:20.629Z,6.13
2023-02-06T19:16:30.239Z,5.30
2023-02-06T19:21:35.415Z,5.37
2023-02-06T19:26:40.479Z,5.13
2023-02-06T19:31:48.165Z,4.87
2023-02-06T19:36:53.796Z,5.03
2023-02-06T19:41:58.846Z,5.10
2023-02-06T19:47:06.612Z,4.80
2023-02-06T19:52:14.488Z,5.57
2023-02-06T19:57:19.570Z,5.30
2023-02-06T20:44:06.022Z,5.80
2023-02-06T20:49:15.838Z,5.67
2023-02-06T20:54:21.156Z,6.10
2023-02-06T20:59:29.337Z,6.23
2023-02-06T21:04:35.499Z,6.10
2023-02-06T21:09:40.788Z,6.50
2023-02-06T21:14:48.614Z,6.03
2023-02-06T21:19:53.996Z,6.63
2023-02-06T21:25:00.334Z,6.93
2023-02-06T21:30:09.960Z,7.27
2023-02-06T21:35:15.163Z,6.87
2023-02-06T21:40:21.162Z,7.23
2023-02-06T21:45:28.823Z,7.63
2023-02-06T21:50:33.898Z,6.90
2023-02-06T21:55:44.233Z,7.60
2023-02-06T22:00:54.508Z,7.50
2023-02-06T22:06:08.386Z,7.30
2023-02-06T22:11:21.643Z,7.47
2023-02-06T22:16:29.625Z,8.17
2023-02-06T22:21:35.057Z,8.10
2023-02-06T22:26:41.623Z,8.23
2023-02-06T22:31:49.433Z,7.50
2023-02-06T22:36:54.707Z,8.20
2023-02-06T22:41:59.810Z,7.50
2023-02-06T22:47:07.570Z,8.37
2023-02-06T22:52:33.303Z,8.30
2023-02-06T22:57:39.532Z,8.60
2023-02-06T23:02:47.746Z,8.00
2023-02-06T23:07:52.812Z,7.73
